Galva, IA

1:38 PM CDT on September 17, 2014 (GMT -0500)
Storm Lake Municipal | Change Station
CLOSE
Current Station
Airport
Location: Storm Lake,
Elevation: 1490 ft
Nearby Weather Stations

Elev 1490 ft 42.60 °N, 95.24 °W | Updated 23 minutes ago

Clear
Clear
72 °F
Feels Like 72 °F
N
7
Wind Variable Wind from SE

Today
High -- | Low -- °F
--% Chance of Precip.
Yesterday
High -- | Low -- °F
Precip. -- in
7:03 AM 7:27 PM
Waning Crescent, 34% visible
Pressure 29.94 in
Visibility 10.0 miles
Clouds Clear
Dew Point 57 °F
Humidity 60%
Rainfall 0.00 in
Snow Depth Not available.
UV 7 out of 12
Pollen 5.00 out of 12
Air Quality Not available.
Flu Activity Not available.
METAR KSLB 171815Z AUTO 13006KT 10SM CLR 22/14 A2994 RMK AO2

More Conditions Fewer Conditions

Pressure 29.94 in
Visibility 10.0 miles
Clouds Clear
Dew Point 57 °F
Humidity 60%
Rainfall 0.00 in
Snow Depth Not available.
UV 7 out of 12
Pollen 5.00 out of 12
Air Quality Not available.
Flu Activity Not available.
METAR KSLB 171815Z AUTO 13006KT 10SM CLR 22/14 A2994 RMK AO2

More Conditions Fewer Conditions

10-Day Weather Forecast

Almanac

Astronomy

Sep. 17, 2014 Rise Set
Actual Time 7:03 AM CDT 7:27 PM CDT
Civil Twilight 6:35 AM CDT 7:55 PM CDT
Nautical Twilight 6:02 AM CDT 8:29 PM CDT
Astronomical Twilight 5:28 AM CDT 9:03 PM CDT
Moon 12:59 AM CDT 3:43 PM CDT
Length of Visible Light 13h 20m
Length of Day
12h 24m
Tomorrow will be 2m 51s shorter.
Waning Crescent, 34% of the Moon is Illuminated
Today
Waning Crescent
Sep 24
New
Oct 1
First Quarter
Oct 8
Full
Oct 15
Last Quarter

Today's Extremes

State Highs State Lows

Community

WunderPhotos

Upload Photos

1,754,127 photos uploaded!

WunderBlogs® & News

Nearby

Snow Depth

Station Depth Elevation
No new snow has been reported.

Earthquake Activity

City Distance Mag. Time & Date
No recent earthquake activity has been reported nearby.
Minimum magnitude displayed is 2.5.

Coastal Water Temperatures

Place Temperature
No Stations Reporting

Nearby Weather Stations